Time;durP1;ratioP1;P1;durP2;ratioP2;P2;SDS_P1;SDS_P2;PMS_P1;PMS_P2;Temp;Humidity;BMP_temperature;BMP_pressure;BME280_temperature;BME280_humidity;BME280_pressure;Samples;Min_cycle;Max_cycle;Signal;HPM_P1;HPM_P2
2022/06/02 00:02:17;;;;;;;15.07;13.75;;;;;;;10.39;77.24;101907.88;5085046;28;20028;-67
2022/06/02 00:04:53;;;;;;;15.05;13.65;;;;;;;10.30;76.93;101908.44;5081636;28;20060;-67
2022/06/02 00:07:45;;;;;;;15.63;14.23;;;;;;;10.27;77.42;101896.53;5063017;28;20064;-67
2022/06/02 00:11:03;;;;;;;15.65;14.18;;;;;;;10.33;77.76;101913.47;5066913;28;20036;-67
2022/06/02 00:13:44;;;;;;;15.57;14.23;;;;;;;10.19;78.12;101916.03;5055262;28;20020;-68
2022/06/02 00:16:15;;;;;;;16.85;15.25;;;;;;;10.09;78.46;101911.44;5051243;28;20116;-67
2022/06/02 00:18:51;;;;;;;16.70;15.20;;;;;;;10.18;78.79;101909.19;5061504;28;20020;-67
2022/06/02 00:21:35;;;;;;;16.92;15.43;;;;;;;10.08;78.86;101904.56;5075670;28;20039;-67
2022/06/02 00:24:18;;;;;;;17.00;15.50;;;;;;;10.17;77.74;101913.56;5063553;28;20024;-67
2022/06/02 00:27:09;;;;;;;16.52;15.13;;;;;;;10.20;78.35;101915.09;5066755;28;20024;-67
2022/06/02 00:29:40;;;;;;;17.80;16.30;;;;;;;10.13;79.32;101916.41;5066988;28;20111;-69
2022/06/02 00:32:24;;;;;;;17.92;16.30;;;;;;;10.20;78.53;101922.88;5064556;28;20051;-68
2022/06/02 00:35:21;;;;;;;17.35;15.85;;;;;;;10.17;79.03;101923.09;5057662;28;20391;-67
2022/06/02 00:38:06;;;;;;;17.75;16.15;;;;;;;10.18;79.19;101924.75;5063744;28;20405;-67
2022/06/02 00:40:35;;;;;;;18.48;16.98;;;;;;;9.90;79.81;101923.03;5055778;28;20068;-67
2022/06/02 00:43:29;;;;;;;18.45;16.85;;;;;;;10.11;79.50;101927.72;5077687;28;20498;-67
2022/06/02 00:46:38;;;;;;;18.70;17.00;;;;;;;10.11;78.90;101932.06;5058897;28;20063;-68
2022/06/02 00:49:14;;;;;;;18.75;17.13;;;;;;;9.98;79.24;101934.59;5034437;28;20041;-67
2022/06/02 00:52:13;;;;;;;19.30;17.67;;;;;;;9.97;79.00;101932.91;5067745;28;20028;-67
2022/06/02 00:58:22;;;;;;;19.60;18.00;;;;;;;9.91;79.25;101941.06;5058670;28;20044;-68
2022/06/02 01:01:02;;;;;;;20.75;18.98;;;;;;;9.76;79.43;101940.25;5058675;28;20294;-68
2022/06/02 01:03:38;;;;;;;20.27;18.48;;;;;;;9.84;79.62;101942.38;5064462;28;20020;-67
2022/06/02 01:06:19;;;;;;;19.55;17.85;;;;;;;9.84;79.22;101937.19;5081827;28;20071;-67
2022/06/02 01:09:35;;;;;;;20.70;18.90;;;;;;;9.90;79.88;101931.63;5084605;28;20142;-68
2022/06/02 01:12:04;;;;;;;22.17;20.33;;;;;;;9.85;79.97;101928.47;5042578;28;20044;-67
2022/06/02 01:14:29;;;;;;;;;;;;;;;10.03;77.90;101932.53;5038202;28;20043;-67
2022/06/02 01:17:04;;;;;;;22.30;20.38;;;;;;;9.85;79.99;101944.84;5043970;28;20355;-67
2022/06/02 01:19:59;;;;;;;23.10;21.20;;;;;;;9.77;80.51;101916.00;5044182;28;20041;-68
2022/06/02 01:22:45;;;;;;;23.33;21.33;;;;;;;9.89;79.57;101931.72;5042910;28;20037;-68
2022/06/02 01:25:41;;;;;;;23.35;21.50;;;;;;;9.82;80.08;101939.03;5043705;28;20037;-68
2022/06/02 01:28:28;;;;;;;23.67;21.67;;;;;;;9.70;79.86;101929.44;5042161;28;20056;-68
2022/06/02 01:31:19;;;;;;;24.15;22.15;;;;;;;9.80;79.50;101941.72;5045120;28;20531;-68
2022/06/02 01:33:48;;;;;;;23.77;21.88;;;;;;;9.74;80.02;101946.44;5010351;28;20052;-67
2022/06/02 01:36:32;;;;;;;24.90;22.75;;;;;;;9.76;80.41;101944.59;5043588;28;20037;-69
2022/06/02 01:39:20;;;;;;;25.38;23.38;;;;;;;9.63;80.62;101928.94;5037045;28;20110;-67
2022/06/02 01:42:15;;;;;;;24.98;22.98;;;;;;;9.69;80.25;101936.38;5042088;28;20065;-67
2022/06/02 01:44:56;;;;;;;26.50;24.30;;;;;;;9.51;81.30;101935.69;5026838;28;20456;-68
2022/06/02 01:47:27;;;;;;;26.60;24.42;;;;;;;9.43;81.38;101932.72;5062797;28;20132;-69
2022/06/02 01:50:05;;;;;;;26.45;24.25;;;;;;;9.50;81.03;101931.44;5079622;28;20035;-67
2022/06/02 01:52:57;;;;;;;25.48;23.45;;;;;;;9.50;80.87;101928.84;5070090;28;20035;-68
2022/06/02 01:55:30;;;;;;;25.88;23.77;;;;;;;9.44;81.31;101924.03;5083138;28;20085;-67
2022/06/02 01:58:20;;;;;;;25.35;23.25;;;;;;;9.45;81.12;101930.88;5086052;28;20463;-67
2022/06/02 02:00:56;;;;;;;26.35;24.15;;;;;;;9.31;81.68;101923.09;5084886;28;20024;-68
2022/06/02 02:03:34;;;;;;;26.10;24.00;;;;;;;9.37;81.16;101933.09;5085605;28;20042;-67
2022/06/02 02:06:24;;;;;;;25.33;23.23;;;;;;;9.42;81.30;101936.25;5064940;28;20048;-67
2022/06/02 02:08:52;;;;;;;25.17;23.17;;;;;;;9.33;81.45;101931.59;5066335;28;20067;-68
2022/06/02 02:11:45;;;;;;;25.75;23.60;;;;;;;9.44;81.51;101934.38;5066773;28;20081;-67
2022/06/02 02:14:11;;;;;;;25.90;23.80;;;;;;;9.40;81.52;101935.47;5062592;28;20128;-67
2022/06/02 02:16:57;;;;;;;25.60;23.30;;;;;;;9.32;81.82;101941.13;5066592;28;20549;-67
2022/06/02 02:19:44;;;;;;;25.00;22.90;;;;;;;9.33;81.81;101941.94;5050171;28;20028;-67
2022/06/02 02:22:41;;;;;;;25.10;23.10;;;;;;;9.30;82.39;101937.81;5051395;28;20048;-68
2022/06/02 02:25:31;;;;;;;24.98;22.92;;;;;;;9.31;82.19;101936.03;5066673;28;20032;-67
2022/06/02 02:28:43;;;;;;;25.40;23.27;;;;;;;9.35;81.50;101945.31;5053807;28;20032;-67
2022/06/02 02:31:09;;;;;;;26.92;24.73;;;;;;;9.14;82.25;101939.59;5039416;28;20056;-67
2022/06/02 02:33:48;;;;;;;26.80;24.63;;;;;;;9.03;82.43;101932.44;5042156;28;20393;-69
2022/06/02 02:36:51;;;;;;;27.40;25.10;;;;;;;9.17;82.85;101948.94;5043598;28;20056;-68
2022/06/02 02:39:23;;;;;;;29.55;27.10;;;;;;;9.17;82.88;101946.34;5041004;28;20041;-67
2022/06/02 02:42:02;;;;;;;31.30;28.70;;;;;;;9.04;84.38;101935.88;5042371;28;20036;-67
2022/06/02 02:44:34;;;;;;;31.20;28.60;;;;;;;9.07;84.23;101940.06;5042135;28;20041;-67
2022/06/02 02:47:09;;;;;;;30.88;28.40;;;;;;;8.95;84.66;101934.66;5021938;28;20029;-67
2022/06/02 02:49:47;;;;;;;33.15;30.38;;;;;;;9.01;84.90;101938.66;5042798;28;20083;-68
2022/06/02 02:52:34;;;;;;;34.55;31.75;;;;;;;8.99;84.40;101943.88;5039707;28;20116;-67
2022/06/02 02:55:06;;;;;;;36.80;33.63;;;;;;;8.94;85.69;101935.56;5040916;28;20036;-65
2022/06/02 02:57:50;;;;;;;34.15;31.25;;;;;;;8.99;85.38;101928.38;5041429;28;20051;-67
2022/06/02 03:00:20;;;;;;;33.08;30.40;;;;;;;9.00;84.81;101940.41;5041523;28;20033;-67
2022/06/02 03:02:54;;;;;;;33.70;31.00;;;;;;;8.96;84.85;101938.91;5040908;28;20029;-67
2022/06/02 03:05:47;;;;;;;33.35;30.70;;;;;;;9.07;84.82;101945.22;5066050;28;20053;-68
2022/06/02 03:08:29;;;;;;;34.28;31.48;;;;;;;9.05;84.81;101953.06;5076262;28;20028;-67
2022/06/02 03:11:07;;;;;;;34.65;31.88;;;;;;;8.97;84.94;101956.09;5085390;28;20024;-67
2022/06/02 03:14:03;;;;;;;33.53;30.77;;;;;;;9.07;84.46;101966.75;5089490;28;20039;-67
2022/06/02 03:16:32;;;;;;;33.78;31.08;;;;;;;9.00;84.20;101961.09;5067606;28;20036;-67
2022/06/02 03:19:34;;;;;;;33.67;30.98;;;;;;;8.93;84.16;101959.75;5078244;28;20059;-67
2022/06/02 03:22:37;;;;;;;36.13;33.10;;;;;;;9.02;84.75;101961.84;5073451;28;20032;-68
2022/06/02 03:25:17;;;;;;;33.88;30.98;;;;;;;8.93;85.38;101964.94;5084530;28;20523;-67
2022/06/02 03:28:13;;;;;;;35.72;32.78;;;;;;;8.91;85.69;101968.53;5095224;28;20133;-67
2022/06/02 03:30:50;;;;;;;34.30;31.60;;;;;;;8.88;84.41;101961.78;5084935;28;20070;-67
2022/06/02 03:33:47;;;;;;;34.65;31.92;;;;;;;8.94;85.04;101968.34;5074049;28;20039;-69
2022/06/02 03:36:31;;;;;;;34.10;31.30;;;;;;;8.99;84.60;101980.13;5086479;28;20024;-67
2022/06/02 03:39:06;;;;;;;34.13;31.23;;;;;;;9.03;84.65;101975.63;5084282;28;20035;-67
2022/06/02 03:41:49;;;;;;;33.33;30.63;;;;;;;8.99;85.76;101985.28;5080667;28;20028;-69
2022/06/02 03:44:48;;;;;;;34.20;31.35;;;;;;;9.04;84.58;101978.09;5073582;28;20466;-67
2022/06/02 03:47:36;;;;;;;33.45;30.75;;;;;;;9.05;84.32;101979.78;5081847;28;20023;-69
2022/06/02 03:50:01;;;;;;;;;;;;;;;9.20;83.35;101988.44;5081006;28;20027;-67
2022/06/02 03:52:57;;;;;;;33.35;30.65;;;;;;;9.02;84.28;101990.31;5082755;28;19920;-68
2022/06/02 03:55:44;;;;;;;33.10;30.27;;;;;;;8.98;84.43;101993.97;5081478;28;20102;-67
2022/06/02 03:58:14;;;;;;;33.47;30.88;;;;;;;8.95;83.98;101989.00;5084505;28;20067;-67
2022/06/02 04:00:45;;;;;;;32.17;29.67;;;;;;;8.97;84.29;102001.84;5086152;28;20043;-67
2022/06/02 04:03:22;;;;;;;31.65;28.98;;;;;;;8.92;84.44;102004.69;5078531;28;20394;-67
2022/06/02 04:06:06;;;;;;;31.50;29.00;;;;;;;8.95;84.46;102001.94;5077189;28;20503;-67
2022/06/02 04:08:49;;;;;;;32.42;29.83;;;;;;;8.92;84.59;102003.84;5071103;28;20035;-67
2022/06/02 04:14:29;;;;;;;30.95;28.42;;;;;;;8.97;84.27;102007.84;5089234;28;20145;-67
2022/06/02 04:17:05;;;;;;;30.13;27.73;;;;;;;8.98;84.49;102009.50;5083471;28;20038;-68
2022/06/02 04:23:36;;;;;;;29.73;27.33;;;;;;;9.02;83.59;102015.34;5086992;28;20085;-67
2022/06/02 04:26:36;;;;;;;28.55;26.27;;;;;;;8.99;84.25;102024.09;5085380;28;20110;-67
2022/06/02 04:29:29;;;;;;;29.00;26.60;;;;;;;8.92;84.38;102029.72;5086684;28;20028;-67
2022/06/02 04:32:15;;;;;;;29.58;27.02;;;;;;;8.83;84.54;102022.44;5083281;28;20047;-67
2022/06/02 04:35:15;;;;;;;31.08;28.50;;;;;;;8.85;84.56;102029.22;5083523;28;20020;-67
2022/06/02 04:37:50;;;;;;;30.55;28.08;;;;;;;8.78;84.53;102033.06;5085242;28;20107;-67
2022/06/02 04:40:33;;;;;;;31.27;28.70;;;;;;;8.81;85.43;102032.91;5083993;28;20036;-67
2022/06/02 04:43:26;;;;;;;31.33;28.67;;;;;;;8.84;85.40;102037.91;5086241;28;20056;-69
2022/06/02 04:46:25;;;;;;;32.05;29.55;;;;;;;8.89;85.41;102038.50;5084166;28;20099;-67
2022/06/02 04:49:16;;;;;;;32.35;29.65;;;;;;;8.94;85.80;102046.81;5085725;28;20043;-66
2022/06/02 04:52:00;;;;;;;31.83;29.33;;;;;;;9.02;85.56;102047.25;5079042;28;20024;-66
2022/06/02 04:54:39;;;;;;;33.50;30.60;;;;;;;9.01;85.88;102048.16;5064017;28;20480;-67
2022/06/02 04:57:16;;;;;;;32.92;30.27;;;;;;;9.00;86.53;102043.91;5086418;28;20500;-67
2022/06/02 05:00:03;;;;;;;33.95;31.25;;;;;;;9.07;86.69;102044.41;5086612;28;20027;-66
2022/06/02 05:02:37;;;;;;;33.08;30.35;;;;;;;9.11;86.37;102060.56;5080551;28;20050;-67
2022/06/02 05:05:15;;;;;;;33.47;30.77;;;;;;;9.14;86.33;102044.88;5084922;28;20079;-67
2022/06/02 05:08:12;;;;;;;35.67;32.87;;;;;;;9.20;86.91;102049.72;5084611;28;20107;-67
2022/06/02 05:10:55;;;;;;;34.35;31.58;;;;;;;9.21;86.92;102046.22;5080782;28;20286;-67
2022/06/02 05:13:33;;;;;;;36.83;33.80;;;;;;;9.24;87.38;102054.66;5081560;28;20371;-67
2022/06/02 05:16:24;;;;;;;36.53;33.53;;;;;;;9.28;87.48;102052.69;5079488;28;20024;-67
2022/06/02 05:19:01;;;;;;;36.13;33.17;;;;;;;9.34;87.33;102056.69;5052182;28;20048;-67
2022/06/02 05:21:46;;;;;;;37.70;34.55;;;;;;;9.43;87.19;102062.19;5081523;28;20028;-67
2022/06/02 05:24:43;;;;;;;37.35;34.25;;;;;;;9.46;87.76;102056.84;5087785;28;20059;-67
2022/06/02 05:27:45;;;;;;;37.42;34.35;;;;;;;9.53;87.03;102063.34;5076160;28;20463;-67
2022/06/02 05:30:29;;;;;;;37.38;34.33;;;;;;;9.56;87.74;102057.97;5074536;28;20465;-67
2022/06/02 05:33:16;;;;;;;36.75;33.75;;;;;;;9.63;86.66;102055.03;5080168;28;20078;-67
2022/06/02 05:36:06;;;;;;;38.85;35.72;;;;;;;9.68;87.87;102066.78;5082511;28;20035;-67
2022/06/02 05:38:43;;;;;;;39.13;35.72;;;;;;;9.80;87.18;102066.06;5086427;28;20459;-68
2022/06/02 05:41:36;;;;;;;36.78;33.78;;;;;;;9.91;86.95;102067.22;5076462;28;20384;-67
2022/06/02 05:44:29;;;;;;;35.83;32.75;;;;;;;10.01;86.20;102069.16;5075322;28;20028;-67
2022/06/02 05:47:03;;;;;;;39.08;35.67;;;;;;;10.06;86.59;102077.50;5081483;28;20044;-68
2022/06/02 05:49:55;;;;;;;36.75;33.65;;;;;;;10.15;86.26;102075.28;5080049;28;20036;-67
2022/06/02 05:52:45;;;;;;;37.90;34.75;;;;;;;10.21;86.38;102074.94;5078213;28;20404;-67
2022/06/02 05:55:30;;;;;;;35.92;32.92;;;;;;;10.29;86.17;102080.53;5083006;28;20028;-69
2022/06/02 05:58:37;;;;;;;36.00;32.80;;;;;;;10.38;85.30;102082.56;5079186;28;20130;-71
2022/06/02 06:01:28;;;;;;;34.78;31.77;;;;;;;10.43;85.09;102075.31;5079779;28;20548;-69
2022/06/02 06:03:57;;;;;;;34.05;31.13;;;;;;;10.45;85.63;102089.03;5081954;28;20826;-69
2022/06/02 06:06:55;;;;;;;35.63;32.65;;;;;;;10.55;85.46;102090.16;5079945;28;20357;-70
2022/06/02 06:09:40;;;;;;;35.25;32.28;;;;;;;10.67;85.97;102087.72;5067670;28;20051;-68
2022/06/02 06:12:24;;;;;;;32.75;30.00;;;;;;;10.70;85.69;102095.31;5085147;28;20032;-67
2022/06/02 06:15:08;;;;;;;35.17;32.17;;;;;;;10.75;85.37;102095.88;5084529;28;20036;-71
2022/06/02 06:18:17;;;;;;;33.72;30.73;;;;;;;10.82;85.05;102086.78;5067334;28;20499;-69
2022/06/02 06:20:52;;;;;;;31.80;29.10;;;;;;;10.86;85.20;102094.28;5082016;28;20057;-68
2022/06/02 06:23:35;;;;;;;31.40;28.73;;;;;;;10.92;84.53;102082.69;5076602;28;20024;-68
2022/06/02 06:26:10;;;;;;;33.65;30.65;;;;;;;11.02;85.28;102083.75;5085225;28;20066;-68
2022/06/02 06:28:57;;;;;;;30.50;28.00;;;;;;;11.09;84.91;102090.22;5075526;28;20032;-70
2022/06/02 06:31:44;;;;;;;30.63;28.02;;;;;;;11.17;84.36;102092.31;5066131;28;20108;-68
2022/06/02 06:34:16;;;;;;;29.90;27.20;;;;;;;11.24;84.41;102090.16;5083654;28;20115;-68
2022/06/02 06:37:10;;;;;;;27.75;25.45;;;;;;;11.32;83.24;102100.91;5072206;28;20034;-70
2022/06/02 06:39:56;;;;;;;29.15;26.65;;;;;;;11.45;83.92;102106.97;5096728;22;20164;-73
2022/06/02 06:42:56;;;;;;;28.23;25.73;;;;;;;11.50;83.36;102104.91;5071115;28;20020;-73
2022/06/02 06:45:56;;;;;;;28.23;25.83;;;;;;;11.62;84.24;102098.91;5022081;28;20040;-73
2022/06/02 06:48:38;;;;;;;26.92;24.63;;;;;;;11.80;83.88;102102.06;4970977;28;20061;-74
2022/06/02 06:51:17;;;;;;;26.30;23.83;;;;;;;11.82;82.50;102104.63;4957103;28;20096;-76
2022/06/02 06:53:53;;;;;;;26.38;24.17;;;;;;;11.92;82.42;102106.47;4954638;28;20039;-75
2022/06/02 06:56:36;;;;;;;21.95;20.05;;;;;;;12.03;81.62;102108.34;4970783;28;20075;-77
2022/06/02 06:59:33;;;;;;;20.45;18.67;;;;;;;12.15;81.01;102107.53;4964833;28;20042;-76
2022/06/02 07:02:12;;;;;;;21.05;19.25;;;;;;;12.15;80.20;102107.53;4966926;28;20062;-76
2022/06/02 07:05:01;;;;;;;18.70;17.00;;;;;;;12.27;79.94;102110.22;4964407;28;20066;-76
2022/06/02 07:08:08;;;;;;;16.55;15.05;;;;;;;12.29;78.73;102108.38;4963957;28;20098;-77
2022/06/02 07:10:48;;;;;;;17.67;16.10;;;;;;;12.31;79.01;102112.53;4889102;29;20044;-76
2022/06/02 07:13:26;;;;;;;18.40;16.80;;;;;;;12.44;78.17;102117.72;4870448;29;20044;-77
2022/06/02 07:15:59;;;;;;;20.88;18.95;;;;;;;12.47;77.78;102112.31;4897962;29;20033;-76
2022/06/02 07:18:46;;;;;;;13.73;12.43;;;;;;;12.63;76.96;102122.50;4894366;29;20041;-76
2022/06/02 07:21:17;;;;;;;13.90;12.60;;;;;;;12.73;76.74;102131.31;4887205;29;20028;-76
2022/06/02 07:23:48;;;;;;;11.88;10.73;;;;;;;12.86;75.35;102128.69;4871293;28;20087;-76
2022/06/02 07:26:32;;;;;;;11.82;10.73;;;;;;;12.89;73.46;102138.88;4984025;28;20566;-77
2022/06/02 07:29:30;;;;;;;12.32;11.23;;;;;;;12.96;74.13;102127.09;4965373;28;20404;-77
2022/06/02 07:32:14;;;;;;;11.73;10.52;;;;;;;13.06;74.37;102130.72;4982296;28;20046;-76
2022/06/02 07:34:51;;;;;;;13.40;12.20;;;;;;;13.10;73.73;102132.16;4987646;28;20050;-76
2022/06/02 07:37:24;;;;;;;10.30;9.30;;;;;;;13.22;72.02;102130.47;4987472;28;20327;-77
2022/06/02 07:40:08;;;;;;;13.95;12.70;;;;;;;13.22;71.80;102135.69;4980379;28;20050;-76
2022/06/02 07:42:40;;;;;;;14.63;13.23;;;;;;;13.28;71.18;102141.28;4987227;28;20037;-77
2022/06/02 07:45:42;;;;;;;13.65;12.32;;;;;;;13.46;72.62;102146.13;5048784;28;20056;-77
2022/06/02 07:48:44;;;;;;;13.27;12.07;;;;;;;13.70;72.24;102154.75;5063981;28;20555;-77
2022/06/02 07:51:21;;;;;;;12.23;11.02;;;;;;;13.78;71.09;102154.19;5062180;28;20158;-77
2022/06/02 07:53:53;;;;;;;13.40;12.10;;;;;;;13.90;71.14;102162.88;5069435;28;20029;-78
2022/06/02 07:56:37;;;;;;;12.35;11.15;;;;;;;13.99;71.02;102159.56;5064293;28;20066;-77
2022/06/02 07:59:16;;;;;;;11.57;10.43;;;;;;;13.98;69.17;102160.53;5050901;28;20028;-77
2022/06/02 08:02:20;;;;;;;12.48;11.27;;;;;;;14.05;70.02;102156.53;5068844;28;20040;-77
2022/06/02 08:05:23;;;;;;;11.18;10.13;;;;;;;14.14;70.37;102150.59;5061634;28;20319;-77
2022/06/02 08:07:55;;;;;;;12.27;11.05;;;;;;;14.12;66.81;102152.50;5063000;28;20055;-77
2022/06/02 08:10:29;;;;;;;12.02;10.93;;;;;;;13.98;65.72;102155.31;5069236;28;20077;-78
2022/06/02 08:13:14;;;;;;;11.90;10.70;;;;;;;14.08;67.30;102161.50;5050097;28;20055;-77
2022/06/02 08:16:07;;;;;;;10.88;9.80;;;;;;;14.24;68.11;102162.00;5046193;28;20135;-78
2022/06/02 08:18:48;;;;;;;9.93;8.93;;;;;;;14.34;66.54;102162.16;5051091;28;20435;-77
2022/06/02 08:21:27;;;;;;;10.45;9.45;;;;;;;14.51;66.55;102160.91;5067622;28;20043;-78
2022/06/02 08:23:58;;;;;;;10.32;8.93;;;;;;;14.65;65.88;102171.09;5065132;28;20068;-77
2022/06/02 08:26:40;;;;;;;10.65;9.65;;;;;;;14.54;64.35;102163.25;5039704;28;20032;-77
2022/06/02 08:29:45;;;;;;;10.25;9.18;;;;;;;14.75;66.23;102171.22;5064231;28;20036;-77
2022/06/02 08:32:25;;;;;;;10.02;9.07;;;;;;;14.94;65.46;102173.22;5064165;28;20027;-77
2022/06/02 08:35:17;;;;;;;11.65;10.27;;;;;;;15.14;65.32;102172.50;5064860;28;20127;-77
2022/06/02 08:38:01;;;;;;;12.25;10.90;;;;;;;15.20;66.20;102166.78;5067582;28;20020;-77
2022/06/02 08:41:28;;;;;;;12.55;11.35;;;;;;;15.14;65.21;102177.72;5065999;28;20048;-75
2022/06/02 08:43:57;;;;;;;11.60;10.43;;;;;;;15.12;63.11;102174.38;5064616;28;20079;-75
2022/06/02 08:46:31;;;;;;;10.90;9.80;;;;;;;15.22;64.43;102184.94;5067145;28;20034;-75
2022/06/02 08:48:56;;;;;;;11.13;10.05;;;;;;;15.26;63.83;102171.50;5049558;28;20032;-75
2022/06/02 08:51:40;;;;;;;11.05;10.00;;;;;;;15.22;62.11;102180.53;5065884;28;20036;-76
2022/06/02 08:54:20;;;;;;;11.65;10.48;;;;;;;15.29;63.09;102186.09;5067489;28;20108;-78
2022/06/02 08:57:09;;;;;;;10.77;9.77;;;;;;;15.23;63.56;102192.66;5062778;28;20485;-78
2022/06/02 09:00:18;;;;;;;9.38;8.48;;;;;;;15.29;60.82;102180.88;5061501;28;20025;-77
2022/06/02 09:03:26;;;;;;;9.60;8.57;;;;;;;15.41;63.09;102180.72;5041258;28;20514;-77
2022/06/02 09:06:23;;;;;;;8.23;7.43;;;;;;;15.52;62.42;102181.63;5066025;28;20495;-78
2022/06/02 09:09:35;;;;;;;9.05;7.72;;;;;;;15.55;59.85;102186.63;5066841;28;20021;-76
2022/06/02 09:12:25;;;;;;;8.23;6.72;;;;;;;15.45;57.28;102185.72;5049861;28;20028;-77
2022/06/02 09:15:16;;;;;;;7.45;6.10;;;;;;;15.53;58.73;102184.13;5048052;28;20056;-77
2022/06/02 09:17:46;;;;;;;10.88;5.80;;;;;;;15.77;58.79;102181.34;5067036;28;20020;-77
2022/06/02 09:20:18;;;;;;;6.75;5.50;;;;;;;15.80;58.36;102188.09;5066266;28;20029;-78
2022/06/02 09:23:01;;;;;;;6.07;5.25;;;;;;;15.80;57.05;102175.84;5062705;28;20024;-78
2022/06/02 09:25:56;;;;;;;6.60;5.95;;;;;;;15.76;56.30;102174.44;5047188;28;20034;-77
2022/06/02 09:28:43;;;;;;;6.90;5.75;;;;;;;15.85;57.49;102178.09;5025179;28;20043;-78
2022/06/02 09:31:29;;;;;;;7.57;6.78;;;;;;;15.81;56.35;102182.72;5061186;28;20032;-77
2022/06/02 09:33:55;;;;;;;8.02;7.22;;;;;;;15.61;55.74;102178.28;5062836;28;20074;-77
2022/06/02 09:36:26;;;;;;;7.97;6.70;;;;;;;15.90;56.51;102173.31;5067066;28;20040;-78
2022/06/02 09:39:34;;;;;;;8.75;7.50;;;;;;;15.99;57.29;102169.09;5059869;28;20024;-78
2022/06/02 09:41:59;;;;;;;;;;;;;;;16.19;57.45;102170.88;5066888;28;20040;-78
2022/06/02 09:44:45;;;;;;;8.57;6.67;;;;;;;16.01;53.84;102177.66;5055116;28;19917;-77
2022/06/02 09:47:38;;;;;;;8.02;6.03;;;;;;;16.26;56.07;102172.03;5063786;28;20504;-78
2022/06/02 09:50:12;;;;;;;8.27;5.90;;;;;;;16.32;55.76;102171.50;5061079;28;20460;-78
2022/06/02 09:52:59;;;;;;;7.28;6.03;;;;;;;16.53;57.29;102178.50;5060648;28;20129;-77
2022/06/02 09:55:46;;;;;;;7.18;6.20;;;;;;;16.23;51.37;102172.28;5061125;28;20060;-77
2022/06/02 09:58:15;;;;;;;6.75;6.00;;;;;;;16.59;53.41;102178.81;5063918;28;20028;-77
2022/06/02 10:01:12;;;;;;;8.75;6.50;;;;;;;16.42;53.42;102182.84;5048868;28;20036;-77
2022/06/02 10:04:04;;;;;;;7.20;6.13;;;;;;;16.61;52.92;102176.88;5062578;28;20388;-77
2022/06/02 10:07:05;;;;;;;7.82;6.40;;;;;;;16.71;52.07;102172.53;4990045;28;20033;-77
2022/06/02 10:10:03;;;;;;;7.05;6.18;;;;;;;16.83;54.03;102167.19;5014787;28;20044;-78
2022/06/02 10:13:16;;;;;;;7.28;6.40;;;;;;;17.10;54.48;102156.09;5060897;28;20031;-77
2022/06/02 10:15:44;;;;;;;6.82;5.85;;;;;;;17.29;53.46;102161.38;5038638;28;20052;-78
2022/06/02 10:18:25;;;;;;;7.80;6.78;;;;;;;17.10;52.42;102158.72;5048817;28;20036;-77
2022/06/02 10:21:09;;;;;;;7.53;6.05;;;;;;;17.39;55.21;102159.59;5046293;28;20032;-77
2022/06/02 10:24:13;;;;;;;6.88;5.88;;;;;;;17.48;54.64;102156.13;5066028;28;20468;-77
2022/06/02 10:26:57;;;;;;;6.85;5.80;;;;;;;17.39;52.87;102161.38;5065939;28;20027;-77
2022/06/02 10:29:41;;;;;;;7.68;6.28;;;;;;;17.28;50.32;102158.88;5062525;28;20059;-78
2022/06/02 10:32:31;;;;;;;7.93;6.88;;;;;;;17.36;50.54;102151.97;5065615;28;20055;-78
2022/06/02 10:35:33;;;;;;;8.00;6.45;;;;;;;17.46;53.46;102147.56;5060069;28;20040;-77
2022/06/02 10:38:19;;;;;;;7.43;6.57;;;;;;;17.81;51.02;102151.47;5063945;28;20364;-77
2022/06/02 10:41:12;;;;;;;10.23;7.90;;;;;;;17.62;52.37;102156.69;5059115;28;20123;-77
2022/06/02 10:44:06;;;;;;;5.72;4.82;;;;;;;17.81;52.06;102154.06;5057409;28;20036;-77
2022/06/02 10:46:34;;;;;;;6.65;5.57;;;;;;;17.73;48.99;102153.97;5057273;28;20086;-77
2022/06/02 10:49:07;;;;;;;;;;;;;;;18.06;51.92;102150.00;5048121;28;20441;-77
2022/06/02 10:51:57;;;;;;;5.82;5.22;;;;;;;17.76;45.97;102156.28;5057874;28;20307;-78
2022/06/02 10:54:47;;;;;;;6.72;4.50;;;;;;;17.93;48.11;102155.56;5050050;28;20033;-78
2022/06/02 10:57:12;;;;;;;6.47;4.97;;;;;;;17.98;46.02;102147.28;5056049;28;20456;-77
2022/06/02 10:59:50;;;;;;;6.63;4.82;;;;;;;18.21;46.98;102143.34;5057910;28;20096;-77
2022/06/02 11:02:41;;;;;;;6.13;4.05;;;;;;;18.36;48.29;102141.09;5049704;28;20392;-77
2022/06/02 11:05:09;;;;;;;5.35;3.58;;;;;;;18.17;44.00;102141.16;5046041;28;20036;-77
2022/06/02 11:08:25;;;;;;;5.57;3.40;;;;;;;18.61;47.40;102134.34;5062064;28;20064;-78
2022/06/02 11:11:02;;;;;;;4.47;4.07;;;;;;;18.75;46.02;102130.44;5023970;28;20130;-77
2022/06/02 11:13:49;;;;;;;5.18;4.32;;;;;;;18.62;46.75;102129.91;5069336;28;20050;-77
2022/06/02 11:16:36;;;;;;;5.63;5.00;;;;;;;18.61;46.44;102125.66;5070069;28;20051;-78
2022/06/02 11:19:20;;;;;;;5.78;4.90;;;;;;;18.61;46.78;102128.28;5069700;28;20028;-76
2022/06/02 11:22:05;;;;;;;4.80;3.45;;;;;;;18.61;44.37;102123.03;5069830;28;20038;-77
2022/06/02 11:24:46;;;;;;;4.45;3.58;;;;;;;18.49;45.06;102120.56;5049284;28;20047;-77
2022/06/02 11:27:30;;;;;;;6.53;4.57;;;;;;;18.35;43.03;102118.44;5068569;28;20060;-77
2022/06/02 11:30:11;;;;;;;5.60;3.97;;;;;;;18.60;44.57;102122.19;5066342;28;20032;-77
2022/06/02 11:32:57;;;;;;;6.43;4.80;;;;;;;18.68;45.14;102126.75;5069013;28;20062;-77
2022/06/02 11:35:41;;;;;;;5.13;4.30;;;;;;;18.95;42.67;102126.72;5065935;28;20036;-77
2022/06/02 11:38:31;;;;;;;5.00;3.55;;;;;;;18.96;45.46;102123.13;5060109;28;20036;-77
2022/06/02 11:41:15;;;;;;;5.90;3.97;;;;;;;19.17;45.22;102125.47;5040309;28;20045;-78
2022/06/02 11:43:52;;;;;;;4.45;3.70;;;;;;;19.30;43.77;102122.47;5063834;28;20118;-78
2022/06/02 11:46:29;;;;;;;3.88;2.97;;;;;;;19.42;41.05;102118.63;5055362;28;20062;-77
2022/06/02 11:49:17;;;;;;;5.03;2.80;;;;;;;19.36;43.31;102116.59;5065343;28;20119;-77
2022/06/02 11:52:21;;;;;;;3.75;3.30;;;;;;;19.52;43.98;102119.38;5062530;28;20064;-78
2022/06/02 11:55:01;;;;;;;5.25;3.20;;;;;;;19.49;43.29;102118.84;4981687;28;20124;-78
2022/06/02 11:57:48;;;;;;;5.00;3.58;;;;;;;19.41;40.58;102122.22;4985864;28;20053;-76
2022/06/02 12:00:41;;;;;;;5.30;3.70;;;;;;;19.52;42.05;102119.38;4982732;28;20093;-78
2022/06/02 12:03:19;;;;;;;5.53;4.13;;;;;;;19.27;38.90;102120.16;4980576;28;20108;-77
2022/06/02 12:06:14;;;;;;;8.10;4.03;;;;;;;19.46;40.59;102112.09;4983868;28;20525;-75
2022/06/02 12:09:06;;;;;;;5.22;3.22;;;;;;;19.30;40.82;102104.88;4984845;28;20034;-75
2022/06/02 12:11:47;;;;;;;4.47;3.10;;;;;;;19.15;40.53;102116.06;4986139;28;20045;-75
2022/06/02 12:14:16;;;;;;;5.75;3.33;;;;;;;19.40;42.05;102110.06;4985351;28;20030;-75
2022/06/02 12:16:47;;;;;;;4.03;3.40;;;;;;;19.50;40.29;102115.25;4987026;28;20566;-75
2022/06/02 12:19:25;;;;;;;4.65;3.63;;;;;;;19.44;40.58;102103.53;4986803;28;20034;-76
2022/06/02 12:22:09;;;;;;;5.07;4.10;;;;;;;19.93;41.95;102100.44;4970761;28;20069;-76
2022/06/02 12:24:54;;;;;;;5.90;4.80;;;;;;;19.58;38.87;102103.00;4986821;28;20046;-78
2022/06/02 12:27:35;;;;;;;5.72;4.55;;;;;;;19.66;40.36;102098.75;4987052;28;20026;-77
2022/06/02 12:30:22;;;;;;;6.43;4.55;;;;;;;19.68;41.91;102096.81;5009709;28;20407;-77
2022/06/02 12:32:58;;;;;;;5.07;3.97;;;;;;;19.57;40.51;102098.69;5061033;28;20071;-76
2022/06/02 12:36:03;;;;;;;6.03;4.70;;;;;;;19.43;41.43;102093.94;5067249;28;20129;-76
2022/06/02 12:38:40;;;;;;;6.25;4.22;;;;;;;19.51;41.36;102095.84;5054559;28;20400;-78
2022/06/02 12:41:24;;;;;;;4.53;3.53;;;;;;;19.46;40.85;102098.94;5056612;28;20132;-77
2022/06/02 12:44:51;;;;;;;5.22;3.45;;;;;;;19.43;41.53;102096.59;5045972;28;20025;-77
2022/06/02 12:47:36;;;;;;;6.03;3.65;;;;;;;19.16;40.83;102091.44;4988810;28;20548;-77
2022/06/02 12:50:32;;;;;;;17.20;3.90;;;;;;;19.42;43.06;102089.66;4987750;28;20486;-77
2022/06/02 12:53:03;;;;;;;10.20;3.88;;;;;;;19.19;41.39;102081.44;4992117;28;20454;-77